Time;durP1;ratioP1;P1;durP2;ratioP2;P2;SDS_P1;SDS_P2;PMS_P1;PMS_P2;Temp;Humidity;BMP_temperature;BMP_pressure;BME280_temperature;BME280_humidity;BME280_pressure;Samples;Min_cycle;Max_cycle;Signal;HPM_P1;HPM_P2
2023/07/01 00:00:06;;;;;;;7.57;3.40;;;;;;;14.80;100.00;100787.03;5052536;28;20039;-84
2023/07/01 00:02:31;;;;;;;6.60;3.03;;;;;;;14.69;100.00;100777.50;5050624;28;20037;-83
2023/07/01 00:04:59;;;;;;;10.07;3.40;;;;;;;14.62;100.00;100773.81;5050155;28;20051;-80
2023/07/01 00:07:24;;;;;;;6.20;3.72;;;;;;;14.58;100.00;100764.41;5050216;28;20033;-83
2023/07/01 00:09:50;;;;;;;7.22;3.55;;;;;;;14.54;100.00;100765.72;5049787;28;20052;-83
2023/07/01 00:12:15;;;;;;;8.43;3.45;;;;;;;14.51;100.00;100766.91;5050393;28;20125;-81
2023/07/01 00:14:41;;;;;;;8.38;3.30;;;;;;;14.51;100.00;100761.56;5049826;28;20429;-82
2023/07/01 00:17:09;;;;;;;10.35;3.60;;;;;;;14.48;100.00;100743.16;5049710;28;20040;-80
2023/07/01 00:19:35;;;;;;;8.27;3.38;;;;;;;14.44;100.00;100742.63;5048666;28;20067;-81
2023/07/01 00:22:02;;;;;;;13.93;3.85;;;;;;;14.44;100.00;100742.63;5048308;28;20064;-80
2023/07/01 00:24:27;;;;;;;6.65;3.42;;;;;;;14.43;100.00;100732.09;5050271;28;20040;-82
2023/07/01 00:26:52;;;;;;;8.90;3.53;;;;;;;14.40;100.00;100735.13;5050300;28;20446;-82
2023/07/01 00:29:18;;;;;;;10.98;3.70;;;;;;;14.42;100.00;100736.63;5048311;28;20077;-83
2023/07/01 00:31:43;;;;;;;10.13;3.92;;;;;;;14.42;100.00;100735.78;5050063;28;20037;-84
2023/07/01 00:34:08;;;;;;;8.13;3.38;;;;;;;14.41;100.00;100736.78;5051905;28;20029;-82
2023/07/01 00:36:34;;;;;;;9.32;3.80;;;;;;;14.43;100.00;100730.25;5051836;28;20069;-82
2023/07/01 00:38:59;;;;;;;9.82;4.40;;;;;;;14.44;100.00;100723.91;5053538;28;20045;-83
2023/07/01 00:41:25;;;;;;;5.85;3.97;;;;;;;14.46;100.00;100726.41;5052687;28;20036;-85
2023/07/01 00:43:50;;;;;;;9.75;5.18;;;;;;;14.44;100.00;100723.91;5053646;28;20364;-83
2023/07/01 00:46:16;;;;;;;13.43;5.35;;;;;;;14.48;100.00;100728.91;5054027;28;20418;-85
2023/07/01 00:48:42;;;;;;;17.08;5.47;;;;;;;14.45;100.00;100717.56;5053668;28;20033;-85
2023/07/01 00:51:08;;;;;;;10.82;4.85;;;;;;;14.48;100.00;100712.84;5054230;28;20561;-84
2023/07/01 00:53:33;;;;;;;13.98;5.18;;;;;;;14.48;100.00;100715.53;5052948;28;20212;-88
2023/07/01 00:55:59;;;;;;;12.55;5.10;;;;;;;14.46;100.00;100708.53;5054325;28;20029;-85
2023/07/01 00:58:24;;;;;;;8.05;4.35;;;;;;;14.46;100.00;100707.66;5053302;28;20087;-83
2023/07/01 01:00:49;;;;;;;14.15;5.05;;;;;;;14.43;100.00;100708.84;5053957;28;20475;-86
2023/07/01 01:03:22;;;;;;;10.20;5.03;;;;;;;14.42;100.00;100703.66;5053473;28;20028;-89
2023/07/01 01:05:57;;;;;;;7.38;4.60;;;;;;;14.42;100.00;100698.28;5053898;28;20033;-85
2023/07/01 01:08:33;;;;;;;9.48;5.20;;;;;;;14.41;100.00;100697.47;5053617;28;20029;-85
2023/07/01 01:11:02;;;;;;;11.55;5.20;;;;;;;14.42;100.00;100682.25;5053380;28;20021;-85
2023/07/01 01:13:28;;;;;;;10.55;5.57;;;;;;;14.43;100.00;100675.88;5053012;28;20032;-84
2023/07/01 01:16:00;;;;;;;10.80;5.38;;;;;;;14.43;100.00;100675.88;5052097;28;20388;-86
2023/07/01 01:18:30;;;;;;;10.45;5.65;;;;;;;14.43;100.00;100670.53;5053288;28;20067;-86
2023/07/01 01:20:56;;;;;;;12.00;5.63;;;;;;;14.46;100.00;100665.69;5053672;28;20035;-86
2023/07/01 01:23:26;;;;;;;10.60;5.43;;;;;;;14.49;100.00;100658.31;5053273;28;20434;-86
2023/07/01 01:26:07;;;;;;;16.55;5.40;;;;;;;14.51;100.00;100653.63;5053519;28;20036;-84
2023/07/01 01:28:35;;;;;;;10.38;5.75;;;;;;;14.48;100.00;100645.94;5053295;28;20021;-85
2023/07/01 01:31:00;;;;;;;14.23;5.95;;;;;;;14.45;100.00;100645.28;5053111;28;20049;-85
2023/07/01 01:33:26;;;;;;;11.52;5.88;;;;;;;14.44;100.00;100643.59;5052727;28;20437;-84
2023/07/01 01:35:55;;;;;;;13.90;6.15;;;;;;;14.45;100.00;100634.56;5053492;28;20033;-86
2023/07/01 01:38:24;;;;;;;10.73;6.60;;;;;;;14.44;100.00;100630.22;5052965;28;20029;-85
2023/07/01 01:41:09;;;;;;;12.63;6.07;;;;;;;14.43;100.00;100625.84;5053547;28;20021;-87
2023/07/01 01:43:43;;;;;;;10.75;5.60;;;;;;;14.43;100.00;100628.53;5052887;28;20100;-86
2023/07/01 01:46:10;;;;;;;16.27;5.93;;;;;;;14.45;100.00;100625.69;5052097;28;20029;-81
2023/07/01 01:48:37;;;;;;;13.02;6.43;;;;;;;14.41;100.00;100625.19;5052477;28;20384;-86
2023/07/01 01:51:03;;;;;;;10.15;6.28;;;;;;;14.45;100.00;100631.03;5051699;28;20527;-84
2023/07/01 01:53:31;;;;;;;14.07;6.45;;;;;;;14.46;100.00;100627.38;5052384;28;20449;-85
2023/07/01 01:55:58;;;;;;;10.93;6.30;;;;;;;14.45;100.00;100617.66;5052235;28;20064;-82
2023/07/01 01:58:24;;;;;;;10.15;6.50;;;;;;;14.45;100.00;100615.84;5051422;28;20033;-87
2023/07/01 02:00:49;;;;;;;11.95;6.90;;;;;;;14.48;100.00;100620.03;5052524;28;20041;-87
2023/07/01 02:03:15;;;;;;;11.90;7.05;;;;;;;14.50;100.00;100614.50;5052738;28;20029;-87
2023/07/01 02:05:40;;;;;;;11.57;6.95;;;;;;;14.48;100.00;100612.00;5052666;28;20033;-87
2023/07/01 02:08:06;;;;;;;13.35;7.00;;;;;;;14.51;100.00;100605.44;5052274;28;20124;-89
2023/07/01 02:10:34;;;;;;;11.30;6.90;;;;;;;14.50;100.00;100603.78;5052271;28;20040;-86
2023/07/01 02:13:01;;;;;;;11.43;7.38;;;;;;;14.50;100.00;100599.25;5052440;28;20032;-86
2023/07/01 02:15:27;;;;;;;10.82;7.20;;;;;;;14.52;100.00;100605.28;5052706;28;20033;-85
2023/07/01 02:17:53;;;;;;;10.00;7.45;;;;;;;14.53;100.00;100606.94;5052786;28;20029;-89
2023/07/01 02:20:18;;;;;;;16.90;7.78;;;;;;;14.53;100.00;100603.44;5052817;28;20057;-85
2023/07/01 02:22:44;;;;;;;12.15;7.40;;;;;;;14.53;100.00;100601.59;5053064;28;20469;-87
2023/07/01 02:25:09;;;;;;;15.70;7.80;;;;;;;14.54;100.00;100583.69;5051520;28;20066;-81
2023/07/01 02:27:34;;;;;;;9.35;7.25;;;;;;;14.53;100.00;100587.38;5050430;28;20037;-86
2023/07/01 02:30:00;;;;;;;9.77;7.97;;;;;;;14.54;100.00;100589.88;5064790;28;20033;-86
2023/07/01 02:32:25;;;;;;;12.07;8.02;;;;;;;14.55;100.00;100590.72;5070749;28;20085;-86
2023/07/01 02:34:51;;;;;;;12.32;7.85;;;;;;;14.54;100.00;100587.22;5066928;28;20033;-85
2023/07/01 02:37:17;;;;;;;9.85;7.82;;;;;;;14.53;100.00;100579.34;5061979;28;20539;-82
2023/07/01 02:39:45;;;;;;;12.27;8.40;;;;;;;14.54;100.00;100579.19;5055878;28;20037;-82
2023/07/01 02:42:11;;;;;;;11.63;8.20;;;;;;;14.57;100.00;100576.16;5048147;28;20083;-85
2023/07/01 02:44:36;;;;;;;10.38;7.85;;;;;;;14.56;100.00;100579.84;5068508;28;20044;-84
2023/07/01 02:47:02;;;;;;;10.30;7.65;;;;;;;14.55;100.00;100580.84;5065600;28;20198;-84
2023/07/01 02:49:27;;;;;;;12.10;7.93;;;;;;;14.57;100.00;100577.97;5053134;28;20108;-81
2023/07/01 02:51:52;;;;;;;12.07;7.97;;;;;;;14.54;100.00;100572.97;5050653;28;20170;-76
2023/07/01 02:54:18;;;;;;;13.20;7.53;;;;;;;14.53;100.00;100574.81;5052760;28;20440;-76
2023/07/01 02:56:43;;;;;;;14.63;7.45;;;;;;;14.54;100.00;100567.63;5052475;28;20464;-78
2023/07/01 02:59:10;;;;;;;11.55;7.50;;;;;;;14.55;100.00;100571.97;5052259;28;20060;-77
2023/07/01 03:01:35;;;;;;;12.57;8.27;;;;;;;14.55;100.00;100564.78;5052126;28;20392;-78
2023/07/01 03:04:01;;;;;;;17.35;7.78;;;;;;;14.51;100.00;100566.13;5051257;28;20106;-78
2023/07/01 03:06:26;;;;;;;10.10;7.78;;;;;;;14.52;100.00;100561.63;5052112;28;20064;-77
2023/07/01 03:08:51;;;;;;;10.25;7.70;;;;;;;14.53;100.00;100561.44;5052043;28;20102;-79
2023/07/01 03:11:17;;;;;;;13.95;7.60;;;;;;;14.53;100.00;100568.66;5050822;28;20105;-78
2023/07/01 03:13:42;;;;;;;10.48;8.35;;;;;;;14.52;100.00;100559.75;5052296;28;20037;-77
2023/07/01 03:16:09;;;;;;;10.48;8.15;;;;;;;14.49;100.00;100552.06;5051101;28;20029;-77
2023/07/01 03:18:34;;;;;;;10.55;8.23;;;;;;;14.51;100.00;100551.91;5051930;28;20118;-80
2023/07/01 03:21:00;;;;;;;10.27;7.80;;;;;;;14.51;100.00;100549.22;5052098;28;20457;-78
2023/07/01 03:23:29;;;;;;;10.52;7.95;;;;;;;14.50;100.00;100535.03;5051625;28;20445;-78
2023/07/01 03:25:54;;;;;;;12.77;7.88;;;;;;;14.52;100.00;100540.19;5051695;28;20060;-77
2023/07/01 03:28:20;;;;;;;11.05;7.68;;;;;;;14.52;100.00;100542.88;5051803;28;20065;-78
2023/07/01 03:30:45;;;;;;;10.50;7.18;;;;;;;14.52;100.00;100535.66;5051969;28;20455;-78
2023/07/01 03:33:12;;;;;;;10.13;7.35;;;;;;;14.55;100.00;100531.81;5051816;28;20081;-79
2023/07/01 03:35:38;;;;;;;9.57;7.30;;;;;;;14.56;100.00;100530.81;5050629;28;20044;-78
2023/07/01 03:38:04;;;;;;;13.32;7.68;;;;;;;14.56;100.00;100534.31;5050387;28;20393;-79
2023/07/01 03:40:30;;;;;;;8.85;6.63;;;;;;;14.55;100.00;100526.47;5050444;28;20044;-79
2023/07/01 03:42:56;;;;;;;10.23;6.57;;;;;;;14.55;100.00;100521.13;5050462;28;20036;-80
2023/07/01 03:45:21;;;;;;;7.30;6.45;;;;;;;14.56;100.00;100518.25;5051667;28;20376;-80
2023/07/01 03:47:47;;;;;;;9.27;7.00;;;;;;;14.58;100.00;100508.19;5051780;28;20397;-80
2023/07/01 03:50:13;;;;;;;8.05;6.18;;;;;;;14.61;100.00;100517.78;5050742;28;20025;-79
2023/07/01 03:52:39;;;;;;;9.02;6.68;;;;;;;14.61;100.00;100517.78;5050602;28;20049;-80
2023/07/01 03:55:07;;;;;;;9.32;6.40;;;;;;;14.61;100.00;100510.59;5051339;28;20116;-81
2023/07/01 03:57:33;;;;;;;8.95;6.03;;;;;;;14.64;100.00;100506.72;5051848;28;20464;-81
2023/07/01 03:59:58;;;;;;;7.55;5.75;;;;;;;14.65;100.00;100508.38;5051988;28;20044;-80
2023/07/01 04:02:24;;;;;;;6.70;5.57;;;;;;;14.66;100.00;100510.06;5051882;28;20041;-81
2023/07/01 04:04:49;;;;;;;9.98;6.38;;;;;;;14.67;100.00;100502.84;5050507;28;20078;-81
2023/07/01 04:07:23;;;;;;;6.13;5.53;;;;;;;14.67;100.00;100511.72;5050693;28;20021;-82
2023/07/01 04:09:49;;;;;;;6.35;5.50;;;;;;;14.68;100.00;100501.88;5053755;28;20380;-80
2023/07/01 04:12:15;;;;;;;7.47;5.65;;;;;;;14.68;100.00;100496.50;5056023;28;20037;-80
2023/07/01 04:14:41;;;;;;;7.35;5.43;;;;;;;14.67;100.00;100490.28;5056034;28;20029;-79
2023/07/01 04:17:06;;;;;;;10.65;5.95;;;;;;;14.69;100.00;100508.88;5055760;28;20419;-82
2023/07/01 04:19:31;;;;;;;7.45;5.97;;;;;;;14.69;100.00;100490.97;5055242;28;20420;-81
2023/07/01 04:21:57;;;;;;;9.75;6.03;;;;;;;14.73;100.00;100489.59;5055768;28;20077;-80
2023/07/01 04:24:23;;;;;;;8.35;6.07;;;;;;;14.76;100.00;100489.28;5053948;28;20029;-81
2023/07/01 04:26:48;;;;;;;8.77;5.82;;;;;;;14.79;100.00;100490.75;5055611;28;20037;-84
2023/07/01 04:29:14;;;;;;;7.55;6.00;;;;;;;14.81;100.00;100488.75;5055840;28;20082;-83
2023/07/01 04:31:39;;;;;;;8.27;5.40;;;;;;;14.80;100.00;100490.56;5054900;28;20507;-84
2023/07/01 04:34:05;;;;;;;10.25;6.45;;;;;;;14.81;100.00;100483.38;5054210;28;20090;-84
2023/07/01 04:36:30;;;;;;;7.78;5.70;;;;;;;14.81;100.00;100488.75;5055587;28;20445;-84
2023/07/01 04:38:55;;;;;;;7.20;5.65;;;;;;;14.81;100.00;100486.88;5055294;28;20029;-84
2023/07/01 04:41:21;;;;;;;7.70;5.45;;;;;;;14.82;100.00;100485.03;5055292;28;20036;-84
2023/07/01 04:43:47;;;;;;;6.75;5.47;;;;;;;14.81;100.00;100483.38;5055040;28;20068;-87
2023/07/01 04:46:12;;;;;;;10.38;6.45;;;;;;;14.87;100.00;100487.19;5053854;28;20147;-84
2023/07/01 04:48:37;;;;;;;8.65;5.95;;;;;;;14.88;100.00;100488.84;5055689;28;20032;-84
2023/07/01 04:51:03;;;;;;;8.63;6.25;;;;;;;14.86;100.00;100481.00;5055206;28;20135;-84
2023/07/01 04:53:28;;;;;;;7.57;6.32;;;;;;;14.89;100.00;100486.00;5054676;28;20499;-86
2023/07/01 04:55:53;;;;;;;7.80;5.97;;;;;;;14.87;100.00;100480.00;5054958;28;20485;-84
2023/07/01 04:58:19;;;;;;;8.75;6.45;;;;;;;14.92;100.00;100479.47;5054773;28;20091;-83
2023/07/01 05:00:45;;;;;;;9.57;7.03;;;;;;;14.93;100.00;100483.81;5054838;28;20047;-85
2023/07/01 05:03:10;;;;;;;10.30;7.10;;;;;;;14.92;100.00;100466.06;5054816;28;20033;-85
2023/07/01 05:05:36;;;;;;;7.82;6.40;;;;;;;14.95;100.00;100471.91;5054854;28;20527;-85
2023/07/01 05:08:01;;;;;;;9.18;7.05;;;;;;;14.98;100.00;100474.22;5055239;28;20037;-84
2023/07/01 05:10:27;;;;;;;8.35;6.50;;;;;;;14.98;100.00;100471.56;5037112;28;20041;-86
2023/07/01 05:12:57;;;;;;;9.35;6.57;;;;;;;14.98;100.00;100478.75;5053388;28;20552;-85
2023/07/01 05:15:22;;;;;;;10.18;6.32;;;;;;;14.98;100.00;100468.03;5055447;28;20025;-85
2023/07/01 05:17:48;;;;;;;8.52;5.95;;;;;;;14.99;100.00;100467.03;5054892;28;20086;-85
2023/07/01 05:20:13;;;;;;;8.20;6.38;;;;;;;15.02;100.00;100464.00;5055017;28;20417;-82
2023/07/01 05:22:38;;;;;;;7.55;5.95;;;;;;;15.05;100.00;100468.16;5055169;28;20072;-85
2023/07/01 05:25:04;;;;;;;8.75;5.35;;;;;;;15.07;100.00;100461.63;5054274;28;20033;-85
2023/07/01 05:27:30;;;;;;;8.55;6.20;;;;;;;15.08;100.00;100455.25;5054387;28;20382;-85
2023/07/01 05:29:57;;;;;;;9.50;5.75;;;;;;;15.13;100.00;100458.22;5052714;28;20093;-87
2023/07/01 05:32:22;;;;;;;8.30;5.65;;;;;;;15.15;100.00;100460.72;5054243;28;20041;-86
2023/07/01 05:34:47;;;;;;;6.68;5.43;;;;;;;15.15;100.00;100466.09;5052799;28;20037;-87
2023/07/01 05:37:13;;;;;;;6.57;5.40;;;;;;;15.14;100.00;100470.63;5053416;28;20041;-86
2023/07/01 05:39:39;;;;;;;7.95;5.82;;;;;;;15.15;100.00;100458.03;5037377;28;20033;-84
2023/07/01 05:42:04;;;;;;;7.25;5.72;;;;;;;15.19;100.00;100456.69;5055293;28;20045;-87
2023/07/01 05:44:30;;;;;;;10.43;5.55;;;;;;;15.18;100.00;100455.00;5038040;28;20115;-84
2023/07/01 05:46:56;;;;;;;6.57;5.00;;;;;;;15.17;100.00;100456.03;5054717;28;20059;-83
2023/07/01 05:49:21;;;;;;;8.35;5.50;;;;;;;15.18;100.00;100462.22;5055141;28;20033;-83
2023/07/01 05:51:46;;;;;;;7.15;5.55;;;;;;;15.19;100.00;100462.03;5054845;28;20052;-83
2023/07/01 05:54:12;;;;;;;7.45;4.80;;;;;;;15.20;100.00;100457.50;5055354;28;20036;-83
2023/07/01 05:56:37;;;;;;;6.80;4.95;;;;;;;15.18;100.00;100460.38;5054763;28;20480;-83
2023/07/01 05:59:03;;;;;;;8.25;4.80;;;;;;;15.19;100.00;100455.84;5053432;28;20369;-82
2023/07/01 06:01:29;;;;;;;9.57;5.43;;;;;;;15.24;100.00;100450.78;5054590;28;20028;-84
2023/07/01 06:03:54;;;;;;;6.88;5.30;;;;;;;15.31;100.00;100459.78;5055152;28;20033;-81
2023/07/01 06:06:20;;;;;;;7.60;5.00;;;;;;;15.38;100.00;100451.88;5055674;28;20040;-82
2023/07/01 06:08:46;;;;;;;5.70;4.43;;;;;;;15.41;100.00;100459.53;5055381;28;20440;-83
2023/07/01 06:11:12;;;;;;;10.38;4.78;;;;;;;15.40;100.00;100455.19;5056940;28;20083;-84
2023/07/01 06:13:38;;;;;;;6.18;4.13;;;;;;;15.40;100.00;100455.19;5054127;28;20029;-83
2023/07/01 06:16:04;;;;;;;5.45;4.25;;;;;;;15.39;100.00;100457.03;5054568;28;20044;-83
2023/07/01 06:18:29;;;;;;;6.53;4.57;;;;;;;15.41;100.00;100459.53;5054075;28;20032;-85
2023/07/01 06:20:56;;;;;;;6.50;4.03;;;;;;;15.44;100.00;100457.31;5054095;28;20032;-84
2023/07/01 06:23:21;;;;;;;5.43;4.60;;;;;;;15.48;100.00;100457.78;5055027;28;20067;-84
2023/07/01 06:25:47;;;;;;;6.15;4.25;;;;;;;15.52;100.00;100453.75;5053519;28;20165;-84
2023/07/01 06:28:12;;;;;;;5.18;3.80;;;;;;;15.56;100.00;100451.53;5054197;28;20033;-82
2023/07/01 06:30:38;;;;;;;5.50;4.25;;;;;;;15.55;100.00;100457.91;5053447;28;20068;-84
2023/07/01 06:33:06;;;;;;;5.80;4.18;;;;;;;15.57;100.00;100462.09;5053215;28;20116;-83
2023/07/01 06:35:32;;;;;;;6.18;3.88;;;;;;;15.60;100.00;100458.19;5053743;28;20036;-82
2023/07/01 06:37:57;;;;;;;5.28;3.85;;;;;;;15.66;100.00;100454.81;5053323;28;20116;-82
2023/07/01 06:40:23;;;;;;;4.47;3.20;;;;;;;15.75;100.00;100463.59;5053704;28;20068;-81
2023/07/01 06:42:48;;;;;;;6.68;3.85;;;;;;;15.85;100.00;100457.00;5054174;28;20538;-82
2023/07/01 06:45:13;;;;;;;3.65;3.08;;;;;;;15.89;100.00;100459.31;5052227;28;20035;-80
2023/07/01 06:47:39;;;;;;;4.95;2.97;;;;;;;15.85;100.00;100453.47;5053196;28;20389;-82
2023/07/01 06:50:05;;;;;;;5.28;3.03;;;;;;;15.84;100.00;100460.69;5053561;28;20094;-78
2023/07/01 06:52:31;;;;;;;4.15;3.00;;;;;;;15.82;100.00;100449.31;5052891;28;20048;-80
2023/07/01 06:54:56;;;;;;;4.55;3.15;;;;;;;15.82;100.00;100452.00;5053503;28;20121;-81
2023/07/01 06:57:21;;;;;;;4.82;2.88;;;;;;;15.85;100.00;100446.28;5053227;28;20087;-81
2023/07/01 06:59:47;;;;;;;3.88;2.58;;;;;;;15.94;100.00;100443.47;5053478;28;20072;-81
2023/07/01 07:02:12;;;;;;;3.30;2.47;;;;;;;16.04;100.00;100450.25;5053112;28;20507;-80
2023/07/01 07:04:38;;;;;;;4.95;2.63;;;;;;;16.13;100.00;100444.78;5053503;28;20059;-82
2023/07/01 07:07:03;;;;;;;3.22;2.58;;;;;;;16.17;100.00;100443.41;5053325;28;20021;-81
2023/07/01 07:09:29;;;;;;;4.05;2.58;;;;;;;16.17;100.00;100443.41;5053027;28;20029;-82
2023/07/01 07:11:55;;;;;;;6.72;2.67;;;;;;;16.17;100.00;100446.91;5052493;28;20095;-82
2023/07/01 07:14:22;;;;;;;4.53;2.58;;;;;;;16.17;100.00;100446.09;5053088;28;20036;-80
2023/07/01 07:16:50;;;;;;;3.10;2.35;;;;;;;16.17;100.00;100448.78;5051882;28;20105;-81
2023/07/01 07:19:16;;;;;;;4.90;2.50;;;;;;;16.25;100.00;100443.31;5052918;28;20068;-80
2023/07/01 07:21:41;;;;;;;3.55;2.33;;;;;;;16.30;100.00;100443.59;5053483;28;20060;-82
2023/07/01 07:24:07;;;;;;;3.35;2.38;;;;;;;16.26;100.00;100447.66;5051669;28;20061;-80
2023/07/01 07:26:33;;;;;;;2.83;2.10;;;;;;;16.23;100.00;100445.34;5052928;28;20055;-79
2023/07/01 07:28:58;;;;;;;2.65;2.15;;;;;;;16.26;100.00;100447.66;5053283;28;20438;-81
2023/07/01 07:31:24;;;;;;;2.47;2.28;;;;;;;16.34;100.00;100438.69;5053028;28;20114;-81
2023/07/01 07:33:49;;;;;;;2.80;1.80;;;;;;;16.40;100.00;100448.66;5052928;28;20196;-82
2023/07/01 07:36:16;;;;;;;2.45;2.00;;;;;;;16.39;100.00;100438.94;5052900;28;20381;-82
2023/07/01 07:38:41;;;;;;;2.10;1.70;;;;;;;16.36;100.00;100442.00;5051551;28;20462;-80
2023/07/01 07:41:06;;;;;;;4.60;2.10;;;;;;;16.35;100.00;100440.34;5052595;28;20059;-79
2023/07/01 07:43:32;;;;;;;1.58;1.30;;;;;;;16.37;100.00;100447.19;5053619;28;20485;-81
2023/07/01 07:45:57;;;;;;;2.38;1.42;;;;;;;16.36;100.00;100444.69;5057011;28;20032;-79
2023/07/01 07:48:22;;;;;;;1.80;1.27;;;;;;;16.34;100.00;100452.09;5056761;28;20114;-80
2023/07/01 07:50:49;;;;;;;2.42;1.30;;;;;;;16.37;100.00;100449.03;5056989;28;20453;-78
2023/07/01 07:53:15;;;;;;;5.47;1.30;;;;;;;16.41;100.00;100442.28;5055467;28;20469;-79
2023/07/01 07:55:42;;;;;;;1.58;1.20;;;;;;;16.47;100.00;100446.91;5056779;28;20032;-83
2023/07/01 07:58:08;;;;;;;1.83;1.10;;;;;;;16.45;100.00;100443.59;5055897;28;20037;-84
2023/07/01 08:00:33;;;;;;;5.13;1.20;;;;;;;16.52;100.00;100438.28;5057122;28;20055;-84
2023/07/01 08:02:59;;;;;;;4.30;1.00;;;;;;;16.61;100.00;100439.00;5056400;28;20037;-86
2023/07/01 08:05:26;;;;;;;1.10;1.00;;;;;;;16.70;100.00;100443.25;5056756;28;20424;-82
2023/07/01 08:07:51;;;;;;;1.77;0.77;;;;;;;16.71;100.00;100434.16;5056287;28;20538;-80
2023/07/01 08:10:17;;;;;;;1.15;0.73;;;;;;;16.67;100.00;100443.63;5056746;28;20041;-81
2023/07/01 08:12:42;;;;;;;0.50;0.50;;;;;;;16.67;100.00;100438.25;5056669;28;20083;-87
2023/07/01 08:15:10;;;;;;;0.73;0.60;;;;;;;16.65;100.00;100445.69;5055927;28;20059;-87
2023/07/01 08:17:35;;;;;;;1.60;0.50;;;;;;;16.56;100.00;100443.09;5054808;28;20040;-84
2023/07/01 08:20:01;;;;;;;0.70;0.60;;;;;;;16.53;100.00;100443.47;5056747;28;20033;-83
2023/07/01 08:22:26;;;;;;;0.80;0.80;;;;;;;16.48;100.00;100440.53;5056117;28;20033;-86
2023/07/01 08:24:51;;;;;;;2.95;0.90;;;;;;;16.39;100.00;100441.63;5056276;28;20043;-89
2023/07/01 08:27:17;;;;;;;2.70;1.00;;;;;;;16.30;100.00;100446.28;5056309;28;20083;-84
2023/07/01 08:29:42;;;;;;;2.15;1.05;;;;;;;16.24;100.00;100443.50;5055928;28;20385;-83
2023/07/01 08:32:09;;;;;;;2.83;1.80;;;;;;;16.24;100.00;100440.81;5054854;28;20033;-81
2023/07/01 08:34:35;;;;;;;1.65;1.38;;;;;;;16.19;100.00;100447.56;5056424;28;20041;-83
2023/07/01 08:37:01;;;;;;;2.15;1.52;;;;;;;16.18;100.00;100445.06;5055294;28;20044;-80
2023/07/01 08:39:26;;;;;;;3.75;2.10;;;;;;;16.19;100.00;100446.72;5056104;28;20029;-83
2023/07/01 08:41:56;;;;;;;4.43;2.35;;;;;;;16.27;100.00;100453.84;5055843;28;20033;-84
2023/07/01 08:44:23;;;;;;;5.85;2.30;;;;;;;16.27;100.00;100453.84;5055883;28;20079;-80
2023/07/01 08:46:52;;;;;;;10.95;2.72;;;;;;;16.33;100.00;100450.44;5054314;28;20080;-84
2023/07/01 08:49:22;;;;;;;4.72;1.98;;;;;;;16.35;100.00;100449.22;5055286;28;20035;-83
2023/07/01 08:51:55;;;;;;;4.83;2.43;;;;;;;16.34;100.00;100444.88;5055452;28;20045;-86
2023/07/01 08:54:21;;;;;;;7.68;2.65;;;;;;;16.36;100.00;100445.53;5054666;28;20108;-84
2023/07/01 08:56:49;;;;;;;6.97;2.97;;;;;;;16.39;100.00;100452.34;5056336;28;20064;-85
2023/07/01 08:59:15;;;;;;;7.72;2.95;;;;;;;16.38;100.00;100446.16;5056938;28;20041;-86
2023/07/01 09:01:43;;;;;;;6.95;3.50;;;;;;;16.43;100.00;100445.59;5038003;28;20451;-87
2023/07/01 09:04:08;;;;;;;7.30;3.47;;;;;;;16.52;100.00;100440.97;5056196;28;20104;-86
2023/07/01 09:06:34;;;;;;;6.38;3.63;;;;;;;16.71;100.00;100445.75;5055513;28;20064;-85
2023/07/01 09:09:01;;;;;;;10.30;3.95;;;;;;;16.75;100.00;100449.72;5055509;28;20465;-78
2023/07/01 09:11:26;;;;;;;10.48;4.88;;;;;;;16.80;100.00;100451.84;5055947;28;20029;-80
2023/07/01 09:13:56;;;;;;;9.27;4.30;;;;;;;16.78;100.00;100439.59;5055508;28;20043;-79
2023/07/01 09:16:32;;;;;;;12.07;4.68;;;;;;;16.77;100.00;100448.72;5055525;28;20029;-81
2023/07/01 09:19:23;;;;;;;7.05;4.38;;;;;;;16.75;100.00;100456.94;5056048;28;20447;-85
2023/07/01 09:21:48;;;;;;;10.27;5.07;;;;;;;16.79;100.00;100449.34;5055088;28;20587;-81
2023/07/01 09:24:13;;;;;;;12.02;4.22;;;;;;;16.81;100.00;100458.03;5055349;28;20059;-78
2023/07/01 09:26:39;;;;;;;13.00;5.40;;;;;;;16.84;100.00;100450.44;5055710;28;20055;-80
2023/07/01 09:29:10;;;;;;;9.20;4.70;;;;;;;16.92;100.00;100453.03;5055267;28;20025;-79
2023/07/01 09:31:50;;;;;;;9.32;4.80;;;;;;;17.06;100.00;100458.53;5055157;28;20037;-81
2023/07/01 09:34:17;;;;;;;12.60;4.88;;;;;;;17.01;100.00;100455.59;5055030;28;20397;-80
2023/07/01 09:36:42;;;;;;;13.85;4.60;;;;;;;16.96;100.00;100449.97;5055061;28;20029;-83
2023/07/01 09:39:08;;;;;;;10.93;4.28;;;;;;;16.94;100.00;100449.31;5055119;28;20029;-84
2023/07/01 09:41:34;;;;;;;12.52;3.92;;;;;;;16.89;100.00;100449.91;5054966;28;20043;-83
2023/07/01 09:44:00;;;;;;;11.52;4.05;;;;;;;16.86;100.00;100448.38;5054910;28;20115;-88
2023/07/01 09:46:49;;;;;;;12.68;4.50;;;;;;;16.90;100.00;100446.19;5053988;28;20131;-86
2023/07/01 09:49:14;;;;;;;12.05;4.53;;;;;;;16.97;100.00;100449.75;5055280;28;20094;-88
2023/07/01 09:51:50;;;;;;;15.27;3.97;;;;;;;16.98;100.00;100445.25;5055272;28;20029;-86
2023/07/01 09:54:29;;;;;;;12.35;4.10;;;;;;;17.00;100.00;100449.38;5055523;28;20246;-84
2023/07/01 09:56:57;;;;;;;8.43;3.67;;;;;;;16.96;100.00;100452.63;5054912;28;20029;-86
2023/07/01 09:59:23;;;;;;;12.48;4.22;;;;;;;16.97;100.00;100443.56;5055002;28;20090;-86
2023/07/01 10:01:50;;;;;;;10.27;3.70;;;;;;;17.00;100.00;100451.25;5054706;28;20078;-85
2023/07/01 10:04:19;;;;;;;9.70;3.67;;;;;;;17.08;100.00;100449.28;5054692;28;20032;-84
2023/07/01 10:06:44;;;;;;;13.63;3.90;;;;;;;17.16;100.00;100447.50;5053301;28;20132;-87
2023/07/01 10:09:10;;;;;;;13.38;4.15;;;;;;;17.26;100.00;100450.69;5053158;28;20036;-86
2023/07/01 10:11:37;;;;;;;10.60;4.00;;;;;;;17.38;100.00;100445.63;5054572;28;20037;-86
2023/07/01 10:14:05;;;;;;;9.48;3.38;;;;;;;17.47;100.00;100444.47;5053753;28;20135;-83
2023/07/01 10:16:31;;;;;;;9.65;3.25;;;;;;;17.41;100.00;100445.25;5053976;28;20028;-83
2023/07/01 10:18:56;;;;;;;10.55;3.22;;;;;;;17.35;100.00;100443.31;5052893;28;20438;-86
2023/07/01 10:21:31;;;;;;;10.00;3.25;;;;;;;17.27;100.00;100439.75;5052917;28;20078;-83
2023/07/01 10:23:59;;;;;;;13.68;3.88;;;;;;;17.21;100.00;100443.22;5054408;28;20372;-84
2023/07/01 10:26:48;;;;;;;11.70;3.70;;;;;;;17.23;100.00;100448.38;5054129;28;20037;-84
2023/07/01 10:29:37;;;;;;;11.82;3.45;;;;;;;17.24;100.00;100450.88;5053972;28;20097;-86
2023/07/01 10:32:08;;;;;;;12.20;3.58;;;;;;;17.28;100.00;100465.59;5050551;28;20037;-86
2023/07/01 10:34:54;;;;;;;12.27;3.60;;;;;;;17.43;100.00;100454.75;5054053;28;20024;-84
2023/07/01 10:37:27;;;;;;;11.35;3.55;;;;;;;17.58;100.00;100451.16;5053004;28;20028;-85
2023/07/01 10:39:54;;;;;;;10.52;3.30;;;;;;;17.75;100.00;100457.06;5053144;28;20029;-85
2023/07/01 10:42:33;;;;;;;9.20;3.60;;;;;;;17.72;100.00;100452.09;5051767;28;20414;-83
2023/07/01 10:45:11;;;;;;;12.80;3.80;;;;;;;17.73;100.00;100454.59;5053568;28;20036;-86
2023/07/01 10:48:02;;;;;;;14.90;3.60;;;;;;;17.73;100.00;100456.44;5053314;28;20123;-85
2023/07/01 10:50:28;;;;;;;;;;;;;;;17.65;100.00;100454.75;5054663;28;20072;-84
2023/07/01 10:52:56;;;;;;;8.47;3.53;;;;;;;17.67;100.00;100459.94;5053445;28;19963;-87
2023/07/01 10:55:46;;;;;;;14.07;3.67;;;;;;;17.56;100.00;100454.03;5053206;28;20275;-81
2023/07/01 10:58:21;;;;;;;9.13;3.50;;;;;;;17.50;100.00;100454.84;5053429;28;20106;-84
2023/07/01 11:00:52;;;;;;;11.20;3.42;;;;;;;17.46;100.00;100458.94;5053359;28;20550;-84
2023/07/01 11:03:32;;;;;;;11.15;3.83;;;;;;;17.44;100.00;100458.28;5053129;28;20040;-81
2023/07/01 11:05:59;;;;;;;16.40;3.88;;;;;;;17.36;100.00;100464.66;5052868;28;20060;-83
2023/07/01 11:08:25;;;;;;;13.38;3.55;;;;;;;17.33;100.00;100465.03;5052916;28;20120;-81
2023/07/01 11:10:51;;;;;;;8.35;3.13;;;;;;;17.27;100.00;100476.53;5052897;28;20040;-82
2023/07/01 11:13:18;;;;;;;11.38;3.58;;;;;;;17.22;100.00;100469.03;5052642;28;20036;-81